sensor_id;sensor_type;location;lat;lon;timestamp;P1;durP1;ratioP1;P2;durP2;ratioP2
9485;SDS011;4781;48.776;9.200;2022-12-11T00:00:39;18.35;;;8.38;;
9485;SDS011;4781;48.776;9.200;2022-12-11T00:03:07;17.15;;;8.53;;
9485;SDS011;4781;48.776;9.200;2022-12-11T00:05:39;14.10;;;6.85;;
9485;SDS011;4781;48.776;9.200;2022-12-11T00:08:08;17.65;;;8.73;;
9485;SDS011;4781;48.776;9.200;2022-12-11T00:13:25;13.55;;;6.42;;
9485;SDS011;4781;48.776;9.200;2022-12-11T00:15:53;18.48;;;9.03;;
9485;SDS011;4781;48.776;9.200;2022-12-11T00:18:23;16.12;;;8.45;;
9485;SDS011;4781;48.776;9.200;2022-12-11T00:20:52;17.80;;;8.83;;
9485;SDS011;4781;48.776;9.200;2022-12-11T00:23:20;14.78;;;7.62;;
9485;SDS011;4781;48.776;9.200;2022-12-11T00:25:49;17.70;;;8.48;;
9485;SDS011;4781;48.776;9.200;2022-12-11T00:28:17;18.70;;;8.98;;
9485;SDS011;4781;48.776;9.200;2022-12-11T00:30:46;21.45;;;9.80;;
9485;SDS011;4781;48.776;9.200;2022-12-11T00:33:14;17.77;;;8.25;;
9485;SDS011;4781;48.776;9.200;2022-12-11T00:35:44;18.37;;;9.35;;
9485;SDS011;4781;48.776;9.200;2022-12-11T00:38:19;19.20;;;8.53;;
9485;SDS011;4781;48.776;9.200;2022-12-11T00:40:46;18.05;;;8.65;;
9485;SDS011;4781;48.776;9.200;2022-12-11T00:43:15;14.53;;;7.08;;
9485;SDS011;4781;48.776;9.200;2022-12-11T00:45:44;19.92;;;9.15;;
9485;SDS011;4781;48.776;9.200;2022-12-11T00:48:13;16.25;;;8.18;;
9485;SDS011;4781;48.776;9.200;2022-12-11T00:50:42;18.35;;;9.60;;
9485;SDS011;4781;48.776;9.200;2022-12-11T00:53:10;15.28;;;8.55;;
9485;SDS011;4781;48.776;9.200;2022-12-11T00:55:39;18.80;;;8.55;;
9485;SDS011;4781;48.776;9.200;2022-12-11T00:58:09;16.80;;;8.48;;
9485;SDS011;4781;48.776;9.200;2022-12-11T01:00:39;15.03;;;8.58;;
9485;SDS011;4781;48.776;9.200;2022-12-11T01:03:09;22.58;;;9.25;;
9485;SDS011;4781;48.776;9.200;2022-12-11T01:05:40;23.05;;;8.80;;
9485;SDS011;4781;48.776;9.200;2022-12-11T01:08:10;22.25;;;10.00;;
9485;SDS011;4781;48.776;9.200;2022-12-11T01:10:39;20.20;;;10.40;;
9485;SDS011;4781;48.776;9.200;2022-12-11T01:13:07;19.37;;;10.03;;
9485;SDS011;4781;48.776;9.200;2022-12-11T01:15:41;26.15;;;10.82;;
9485;SDS011;4781;48.776;9.200;2022-12-11T01:18:12;20.30;;;9.58;;
9485;SDS011;4781;48.776;9.200;2022-12-11T01:20:41;20.37;;;10.08;;
9485;SDS011;4781;48.776;9.200;2022-12-11T01:23:11;20.75;;;10.05;;
9485;SDS011;4781;48.776;9.200;2022-12-11T01:25:40;20.00;;;10.00;;
9485;SDS011;4781;48.776;9.200;2022-12-11T01:28:09;18.70;;;9.55;;
9485;SDS011;4781;48.776;9.200;2022-12-11T01:30:39;21.37;;;10.18;;
9485;SDS011;4781;48.776;9.200;2022-12-11T01:33:08;16.48;;;8.63;;
9485;SDS011;4781;48.776;9.200;2022-12-11T01:35:37;15.80;;;7.42;;
9485;SDS011;4781;48.776;9.200;2022-12-11T01:38:06;16.17;;;7.42;;
9485;SDS011;4781;48.776;9.200;2022-12-11T01:40:36;22.82;;;10.20;;
9485;SDS011;4781;48.776;9.200;2022-12-11T01:43:04;21.97;;;10.45;;
9485;SDS011;4781;48.776;9.200;2022-12-11T01:45:39;22.75;;;11.30;;
9485;SDS011;4781;48.776;9.200;2022-12-11T01:48:11;20.10;;;9.08;;
9485;SDS011;4781;48.776;9.200;2022-12-11T01:50:43;19.07;;;8.85;;
9485;SDS011;4781;48.776;9.200;2022-12-11T01:53:16;21.15;;;9.73;;
9485;SDS011;4781;48.776;9.200;2022-12-11T01:55:48;20.68;;;10.03;;
9485;SDS011;4781;48.776;9.200;2022-12-11T01:58:21;24.98;;;10.72;;
9485;SDS011;4781;48.776;9.200;2022-12-11T02:00:53;23.67;;;9.43;;
9485;SDS011;4781;48.776;9.200;2022-12-11T02:03:23;24.20;;;10.40;;
9485;SDS011;4781;48.776;9.200;2022-12-11T02:05:51;20.52;;;9.45;;
9485;SDS011;4781;48.776;9.200;2022-12-11T02:08:20;19.12;;;8.18;;
9485;SDS011;4781;48.776;9.200;2022-12-11T02:10:52;14.73;;;8.30;;
9485;SDS011;4781;48.776;9.200;2022-12-11T02:13:53;17.27;;;8.85;;
9485;SDS011;4781;48.776;9.200;2022-12-11T02:16:32;20.02;;;9.55;;
9485;SDS011;4781;48.776;9.200;2022-12-11T02:21:48;19.87;;;10.13;;
9485;SDS011;4781;48.776;9.200;2022-12-11T02:24:23;14.28;;;8.73;;
9485;SDS011;4781;48.776;9.200;2022-12-11T02:30:00;17.75;;;9.20;;
9485;SDS011;4781;48.776;9.200;2022-12-11T02:32:34;20.35;;;8.00;;
9485;SDS011;4781;48.776;9.200;2022-12-11T02:35:21;18.77;;;9.33;;
9485;SDS011;4781;48.776;9.200;2022-12-11T02:37:56;14.05;;;7.20;;
9485;SDS011;4781;48.776;9.200;2022-12-11T02:40:39;12.63;;;6.78;;
9485;SDS011;4781;48.776;9.200;2022-12-11T02:43:10;11.22;;;5.80;;
9485;SDS011;4781;48.776;9.200;2022-12-11T02:45:40;9.48;;;5.15;;
9485;SDS011;4781;48.776;9.200;2022-12-11T02:48:10;9.00;;;5.22;;
9485;SDS011;4781;48.776;9.200;2022-12-11T02:50:41;11.28;;;5.40;;
9485;SDS011;4781;48.776;9.200;2022-12-11T02:53:12;12.63;;;5.45;;
9485;SDS011;4781;48.776;9.200;2022-12-11T02:55:45;11.57;;;5.20;;
9485;SDS011;4781;48.776;9.200;2022-12-11T02:58:17;13.15;;;5.35;;
9485;SDS011;4781;48.776;9.200;2022-12-11T03:00:49;10.88;;;5.45;;
9485;SDS011;4781;48.776;9.200;2022-12-11T03:03:18;13.28;;;6.15;;
9485;SDS011;4781;48.776;9.200;2022-12-11T03:05:47;12.00;;;6.15;;
9485;SDS011;4781;48.776;9.200;2022-12-11T03:08:15;14.23;;;6.58;;
9485;SDS011;4781;48.776;9.200;2022-12-11T03:10:44;11.55;;;6.10;;
9485;SDS011;4781;48.776;9.200;2022-12-11T03:13:13;13.00;;;6.83;;
9485;SDS011;4781;48.776;9.200;2022-12-11T03:15:52;13.15;;;6.72;;
9485;SDS011;4781;48.776;9.200;2022-12-11T03:18:35;15.48;;;6.20;;
9485;SDS011;4781;48.776;9.200;2022-12-11T03:21:21;13.48;;;6.28;;
9485;SDS011;4781;48.776;9.200;2022-12-11T03:26:36;11.83;;;6.12;;
9485;SDS011;4781;48.776;9.200;2022-12-11T03:29:11;14.53;;;6.83;;
9485;SDS011;4781;48.776;9.200;2022-12-11T03:31:57;11.53;;;5.67;;
9485;SDS011;4781;48.776;9.200;2022-12-11T03:34:45;13.08;;;6.75;;
9485;SDS011;4781;48.776;9.200;2022-12-11T03:37:12;13.98;;;6.37;;
9485;SDS011;4781;48.776;9.200;2022-12-11T03:39:45;13.72;;;7.10;;
9485;SDS011;4781;48.776;9.200;2022-12-11T03:42:15;12.73;;;6.08;;
9485;SDS011;4781;48.776;9.200;2022-12-11T03:44:47;16.17;;;7.70;;
9485;SDS011;4781;48.776;9.200;2022-12-11T03:47:18;12.60;;;6.78;;
9485;SDS011;4781;48.776;9.200;2022-12-11T03:49:49;13.40;;;6.47;;
9485;SDS011;4781;48.776;9.200;2022-12-11T03:52:19;13.88;;;6.58;;
9485;SDS011;4781;48.776;9.200;2022-12-11T03:54:48;14.50;;;7.17;;
9485;SDS011;4781;48.776;9.200;2022-12-11T03:57:19;13.55;;;7.17;;
9485;SDS011;4781;48.776;9.200;2022-12-11T03:59:49;13.38;;;6.67;;
9485;SDS011;4781;48.776;9.200;2022-12-11T04:02:17;11.95;;;6.35;;
9485;SDS011;4781;48.776;9.200;2022-12-11T04:04:45;15.28;;;7.25;;
9485;SDS011;4781;48.776;9.200;2022-12-11T04:07:14;13.25;;;6.67;;
9485;SDS011;4781;48.776;9.200;2022-12-11T04:09:42;13.90;;;7.58;;
9485;SDS011;4781;48.776;9.200;2022-12-11T04:12:11;15.32;;;7.55;;
9485;SDS011;4781;48.776;9.200;2022-12-11T04:14:40;14.10;;;7.33;;
9485;SDS011;4781;48.776;9.200;2022-12-11T04:17:26;15.85;;;7.20;;
9485;SDS011;4781;48.776;9.200;2022-12-11T04:20:18;12.25;;;6.05;;
9485;SDS011;4781;48.776;9.200;2022-12-11T04:23:05;12.88;;;5.97;;
9485;SDS011;4781;48.776;9.200;2022-12-11T04:26:05;15.05;;;6.12;;
9485;SDS011;4781;48.776;9.200;2022-12-11T04:28:39;12.68;;;6.35;;
9485;SDS011;4781;48.776;9.200;2022-12-11T04:31:16;12.03;;;5.87;;
9485;SDS011;4781;48.776;9.200;2022-12-11T04:33:43;12.18;;;6.37;;
9485;SDS011;4781;48.776;9.200;2022-12-11T04:36:12;15.70;;;6.67;;
9485;SDS011;4781;48.776;9.200;2022-12-11T04:38:41;12.13;;;5.80;;
9485;SDS011;4781;48.776;9.200;2022-12-11T04:41:11;13.98;;;6.72;;
9485;SDS011;4781;48.776;9.200;2022-12-11T04:43:41;12.00;;;6.22;;
9485;SDS011;4781;48.776;9.200;2022-12-11T04:46:11;13.85;;;5.65;;
9485;SDS011;4781;48.776;9.200;2022-12-11T04:48:46;13.08;;;5.90;;
9485;SDS011;4781;48.776;9.200;2022-12-11T04:51:16;11.60;;;6.15;;
9485;SDS011;4781;48.776;9.200;2022-12-11T04:53:45;10.10;;;5.47;;
9485;SDS011;4781;48.776;9.200;2022-12-11T04:56:14;15.08;;;6.30;;
9485;SDS011;4781;48.776;9.200;2022-12-11T04:58:43;10.35;;;5.40;;
9485;SDS011;4781;48.776;9.200;2022-12-11T05:01:14;10.00;;;4.78;;
9485;SDS011;4781;48.776;9.200;2022-12-11T05:03:45;11.15;;;5.42;;
9485;SDS011;4781;48.776;9.200;2022-12-11T05:06:13;10.65;;;5.33;;
9485;SDS011;4781;48.776;9.200;2022-12-11T05:08:42;12.98;;;5.65;;
9485;SDS011;4781;48.776;9.200;2022-12-11T05:11:12;11.05;;;5.55;;
9485;SDS011;4781;48.776;9.200;2022-12-11T05:13:42;11.93;;;5.78;;
9485;SDS011;4781;48.776;9.200;2022-12-11T05:16:12;9.63;;;5.10;;
9485;SDS011;4781;48.776;9.200;2022-12-11T05:18:42;11.48;;;5.12;;
9485;SDS011;4781;48.776;9.200;2022-12-11T05:21:12;9.90;;;5.47;;
9485;SDS011;4781;48.776;9.200;2022-12-11T05:23:42;9.83;;;5.17;;
9485;SDS011;4781;48.776;9.200;2022-12-11T05:26:11;13.72;;;5.78;;
9485;SDS011;4781;48.776;9.200;2022-12-11T05:28:43;12.60;;;5.55;;
9485;SDS011;4781;48.776;9.200;2022-12-11T05:31:18;10.98;;;5.92;;
9485;SDS011;4781;48.776;9.200;2022-12-11T05:33:44;9.28;;;4.85;;
9485;SDS011;4781;48.776;9.200;2022-12-11T05:36:16;16.00;;;5.65;;
9485;SDS011;4781;48.776;9.200;2022-12-11T05:38:48;13.95;;;5.50;;
9485;SDS011;4781;48.776;9.200;2022-12-11T05:41:19;12.95;;;5.35;;
9485;SDS011;4781;48.776;9.200;2022-12-11T05:43:49;9.80;;;5.50;;
9485;SDS011;4781;48.776;9.200;2022-12-11T05:46:24;11.53;;;5.62;;
9485;SDS011;4781;48.776;9.200;2022-12-11T05:48:51;12.25;;;5.20;;
9485;SDS011;4781;48.776;9.200;2022-12-11T05:51:26;14.25;;;5.12;;
9485;SDS011;4781;48.776;9.200;2022-12-11T05:53:56;11.38;;;4.80;;
9485;SDS011;4781;48.776;9.200;2022-12-11T05:56:26;12.03;;;6.00;;
9485;SDS011;4781;48.776;9.200;2022-12-11T05:58:58;10.68;;;5.37;;
9485;SDS011;4781;48.776;9.200;2022-12-11T06:01:29;13.28;;;6.00;;
9485;SDS011;4781;48.776;9.200;2022-12-11T06:04:04;16.60;;;6.55;;
9485;SDS011;4781;48.776;9.200;2022-12-11T06:06:34;12.75;;;6.35;;
9485;SDS011;4781;48.776;9.200;2022-12-11T06:09:03;15.68;;;5.83;;
9485;SDS011;4781;48.776;9.200;2022-12-11T06:11:32;11.48;;;5.67;;
9485;SDS011;4781;48.776;9.200;2022-12-11T06:14:02;13.83;;;6.37;;
9485;SDS011;4781;48.776;9.200;2022-12-11T06:16:31;13.32;;;6.42;;
9485;SDS011;4781;48.776;9.200;2022-12-11T06:18:59;14.18;;;6.60;;
9485;SDS011;4781;48.776;9.200;2022-12-11T06:21:33;10.78;;;5.58;;
9485;SDS011;4781;48.776;9.200;2022-12-11T06:24:00;14.47;;;6.40;;
9485;SDS011;4781;48.776;9.200;2022-12-11T06:26:30;14.47;;;7.55;;
9485;SDS011;4781;48.776;9.200;2022-12-11T06:28:59;12.82;;;6.90;;
9485;SDS011;4781;48.776;9.200;2022-12-11T06:31:27;14.20;;;7.10;;
9485;SDS011;4781;48.776;9.200;2022-12-11T06:33:55;18.82;;;8.08;;
9485;SDS011;4781;48.776;9.200;2022-12-11T06:36:24;16.12;;;8.70;;
9485;SDS011;4781;48.776;9.200;2022-12-11T06:38:52;16.20;;;8.38;;
9485;SDS011;4781;48.776;9.200;2022-12-11T06:41:21;14.65;;;6.92;;
9485;SDS011;4781;48.776;9.200;2022-12-11T06:43:50;15.45;;;8.03;;
9485;SDS011;4781;48.776;9.200;2022-12-11T06:46:19;13.60;;;6.70;;
9485;SDS011;4781;48.776;9.200;2022-12-11T06:48:48;18.87;;;7.95;;
9485;SDS011;4781;48.776;9.200;2022-12-11T06:51:17;16.82;;;7.97;;
9485;SDS011;4781;48.776;9.200;2022-12-11T06:53:51;13.22;;;7.25;;
9485;SDS011;4781;48.776;9.200;2022-12-11T06:56:22;14.43;;;7.05;;
9485;SDS011;4781;48.776;9.200;2022-12-11T06:58:51;15.83;;;7.15;;
9485;SDS011;4781;48.776;9.200;2022-12-11T07:01:22;14.25;;;6.30;;
9485;SDS011;4781;48.776;9.200;2022-12-11T07:03:53;14.98;;;7.10;;
9485;SDS011;4781;48.776;9.200;2022-12-11T07:06:23;15.85;;;6.50;;
9485;SDS011;4781;48.776;9.200;2022-12-11T07:08:53;15.65;;;6.65;;
9485;SDS011;4781;48.776;9.200;2022-12-11T07:11:22;15.78;;;7.85;;
9485;SDS011;4781;48.776;9.200;2022-12-11T07:13:51;14.80;;;7.35;;
9485;SDS011;4781;48.776;9.200;2022-12-11T07:16:19;21.20;;;8.20;;
9485;SDS011;4781;48.776;9.200;2022-12-11T07:18:48;13.65;;;8.13;;
9485;SDS011;4781;48.776;9.200;2022-12-11T07:21:18;13.85;;;6.37;;
9485;SDS011;4781;48.776;9.200;2022-12-11T07:23:47;14.47;;;7.42;;
9485;SDS011;4781;48.776;9.200;2022-12-11T07:26:17;15.80;;;7.33;;
9485;SDS011;4781;48.776;9.200;2022-12-11T07:28:47;14.80;;;7.53;;
9485;SDS011;4781;48.776;9.200;2022-12-11T07:31:17;15.15;;;7.80;;
9485;SDS011;4781;48.776;9.200;2022-12-11T07:33:55;20.37;;;8.75;;
9485;SDS011;4781;48.776;9.200;2022-12-11T07:36:26;17.65;;;8.68;;
9485;SDS011;4781;48.776;9.200;2022-12-11T07:38:55;13.75;;;7.45;;
9485;SDS011;4781;48.776;9.200;2022-12-11T07:41:26;16.97;;;8.13;;
9485;SDS011;4781;48.776;9.200;2022-12-11T07:43:59;14.20;;;6.95;;
9485;SDS011;4781;48.776;9.200;2022-12-11T07:46:27;14.58;;;6.97;;
9485;SDS011;4781;48.776;9.200;2022-12-11T07:48:56;16.40;;;6.97;;
9485;SDS011;4781;48.776;9.200;2022-12-11T07:51:29;15.50;;;7.20;;
9485;SDS011;4781;48.776;9.200;2022-12-11T07:54:01;16.97;;;7.87;;
9485;SDS011;4781;48.776;9.200;2022-12-11T07:56:33;15.05;;;7.70;;
9485;SDS011;4781;48.776;9.200;2022-12-11T07:59:02;17.48;;;7.72;;
9485;SDS011;4781;48.776;9.200;2022-12-11T08:01:32;14.05;;;7.42;;
9485;SDS011;4781;48.776;9.200;2022-12-11T08:04:03;15.85;;;6.95;;
9485;SDS011;4781;48.776;9.200;2022-12-11T08:06:36;15.48;;;7.33;;
9485;SDS011;4781;48.776;9.200;2022-12-11T08:09:06;17.85;;;7.70;;
9485;SDS011;4781;48.776;9.200;2022-12-11T08:11:37;11.05;;;6.10;;
9485;SDS011;4781;48.776;9.200;2022-12-11T08:14:05;18.40;;;7.20;;
9485;SDS011;4781;48.776;9.200;2022-12-11T08:16:34;13.28;;;6.37;;
9485;SDS011;4781;48.776;9.200;2022-12-11T08:19:04;16.90;;;6.97;;
9485;SDS011;4781;48.776;9.200;2022-12-11T08:21:33;16.15;;;7.90;;
9485;SDS011;4781;48.776;9.200;2022-12-11T08:24:01;17.77;;;8.40;;
9485;SDS011;4781;48.776;9.200;2022-12-11T08:26:30;15.85;;;7.33;;
9485;SDS011;4781;48.776;9.200;2022-12-11T08:28:59;17.62;;;8.15;;
9485;SDS011;4781;48.776;9.200;2022-12-11T08:31:28;17.37;;;7.37;;
9485;SDS011;4781;48.776;9.200;2022-12-11T08:33:57;16.23;;;7.65;;
9485;SDS011;4781;48.776;9.200;2022-12-11T08:36:26;15.98;;;7.40;;
9485;SDS011;4781;48.776;9.200;2022-12-11T08:38:55;12.90;;;7.33;;
9485;SDS011;4781;48.776;9.200;2022-12-11T08:41:25;15.20;;;6.85;;
9485;SDS011;4781;48.776;9.200;2022-12-11T08:43:55;14.35;;;6.75;;
9485;SDS011;4781;48.776;9.200;2022-12-11T08:46:27;17.48;;;7.72;;
9485;SDS011;4781;48.776;9.200;2022-12-11T08:48:57;15.40;;;7.00;;
9485;SDS011;4781;48.776;9.200;2022-12-11T08:51:27;17.73;;;7.15;;
9485;SDS011;4781;48.776;9.200;2022-12-11T08:53:57;14.70;;;6.47;;
9485;SDS011;4781;48.776;9.200;2022-12-11T08:56:27;14.68;;;6.87;;
9485;SDS011;4781;48.776;9.200;2022-12-11T08:58:59;16.07;;;7.55;;
9485;SDS011;4781;48.776;9.200;2022-12-11T09:01:28;18.15;;;8.35;;
9485;SDS011;4781;48.776;9.200;2022-12-11T09:03:57;12.78;;;6.62;;
9485;SDS011;4781;48.776;9.200;2022-12-11T09:06:26;14.90;;;7.25;;
9485;SDS011;4781;48.776;9.200;2022-12-11T09:08:58;14.90;;;7.00;;
9485;SDS011;4781;48.776;9.200;2022-12-11T09:11:29;14.63;;;6.67;;
9485;SDS011;4781;48.776;9.200;2022-12-11T09:14:00;18.90;;;7.65;;
9485;SDS011;4781;48.776;9.200;2022-12-11T09:16:29;12.35;;;6.25;;
9485;SDS011;4781;48.776;9.200;2022-12-11T09:18:58;15.78;;;7.20;;
9485;SDS011;4781;48.776;9.200;2022-12-11T09:21:27;12.95;;;6.62;;
9485;SDS011;4781;48.776;9.200;2022-12-11T09:23:57;17.12;;;6.67;;
9485;SDS011;4781;48.776;9.200;2022-12-11T09:26:27;15.70;;;7.05;;
9485;SDS011;4781;48.776;9.200;2022-12-11T09:28:57;13.93;;;7.00;;
9485;SDS011;4781;48.776;9.200;2022-12-11T09:31:29;23.05;;;7.45;;
9485;SDS011;4781;48.776;9.200;2022-12-11T09:34:00;15.68;;;7.90;;
9485;SDS011;4781;48.776;9.200;2022-12-11T09:36:32;23.60;;;12.53;;
9485;SDS011;4781;48.776;9.200;2022-12-11T09:39:02;26.27;;;13.28;;
9485;SDS011;4781;48.776;9.200;2022-12-11T09:41:36;21.40;;;12.15;;
9485;SDS011;4781;48.776;9.200;2022-12-11T09:46:47;16.35;;;7.90;;
9485;SDS011;4781;48.776;9.200;2022-12-11T09:52:26;16.82;;;7.90;;
9485;SDS011;4781;48.776;9.200;2022-12-11T09:55:17;18.37;;;8.60;;
9485;SDS011;4781;48.776;9.200;2022-12-11T10:00:47;14.65;;;7.10;;
9485;SDS011;4781;48.776;9.200;2022-12-11T10:03:23;12.63;;;5.83;;
9485;SDS011;4781;48.776;9.200;2022-12-11T10:06:20;16.55;;;7.75;;
9485;SDS011;4781;48.776;9.200;2022-12-11T10:11:46;14.85;;;7.58;;
9485;SDS011;4781;48.776;9.200;2022-12-11T10:15:04;15.63;;;7.87;;
9485;SDS011;4781;48.776;9.200;2022-12-11T10:17:52;17.50;;;6.50;;
9485;SDS011;4781;48.776;9.200;2022-12-11T10:20:29;17.60;;;6.95;;
9485;SDS011;4781;48.776;9.200;2022-12-11T10:23:04;17.00;;;7.30;;
9485;SDS011;4781;48.776;9.200;2022-12-11T10:25:36;18.23;;;6.78;;
9485;SDS011;4781;48.776;9.200;2022-12-11T10:28:11;19.30;;;8.23;;
9485;SDS011;4781;48.776;9.200;2022-12-11T10:33:31;19.25;;;9.78;;
9485;SDS011;4781;48.776;9.200;2022-12-11T10:36:00;18.92;;;8.73;;
9485;SDS011;4781;48.776;9.200;2022-12-11T10:38:32;24.18;;;9.13;;
9485;SDS011;4781;48.776;9.200;2022-12-11T10:41:10;18.60;;;8.25;;
9485;SDS011;4781;48.776;9.200;2022-12-11T10:43:50;19.65;;;10.10;;
9485;SDS011;4781;48.776;9.200;2022-12-11T10:46:21;19.62;;;9.40;;
9485;SDS011;4781;48.776;9.200;2022-12-11T10:48:56;15.18;;;8.48;;
9485;SDS011;4781;48.776;9.200;2022-12-11T10:54:15;21.60;;;9.43;;
9485;SDS011;4781;48.776;9.200;2022-12-11T10:56:59;17.32;;;7.80;;
9485;SDS011;4781;48.776;9.200;2022-12-11T10:59:43;18.70;;;9.30;;
9485;SDS011;4781;48.776;9.200;2022-12-11T11:02:36;23.87;;;10.78;;
9485;SDS011;4781;48.776;9.200;2022-12-11T11:04:57;14.35;;;8.20;;
9485;SDS011;4781;48.776;9.200;2022-12-11T11:07:30;18.45;;;8.98;;
9485;SDS011;4781;48.776;9.200;2022-12-11T11:12:44;17.60;;;8.30;;
9485;SDS011;4781;48.776;9.200;2022-12-11T11:15:23;18.52;;;8.73;;
9485;SDS011;4781;48.776;9.200;2022-12-11T11:17:51;16.95;;;8.63;;
9485;SDS011;4781;48.776;9.200;2022-12-11T11:20:23;17.73;;;9.08;;
9485;SDS011;4781;48.776;9.200;2022-12-11T11:23:01;15.98;;;8.60;;
9485;SDS011;4781;48.776;9.200;2022-12-11T11:25:34;14.58;;;8.13;;
9485;SDS011;4781;48.776;9.200;2022-12-11T11:28:03;17.32;;;9.33;;
9485;SDS011;4781;48.776;9.200;2022-12-11T11:30:36;18.23;;;9.28;;
9485;SDS011;4781;48.776;9.200;2022-12-11T11:33:14;13.78;;;7.28;;
9485;SDS011;4781;48.776;9.200;2022-12-11T11:35:55;17.80;;;8.03;;
9485;SDS011;4781;48.776;9.200;2022-12-11T11:38:36;16.50;;;8.18;;
9485;SDS011;4781;48.776;9.200;2022-12-11T11:41:37;18.32;;;8.95;;
9485;SDS011;4781;48.776;9.200;2022-12-11T11:44:24;20.90;;;8.70;;
9485;SDS011;4781;48.776;9.200;2022-12-11T11:47:09;17.77;;;8.43;;
9485;SDS011;4781;48.776;9.200;2022-12-11T11:49:51;18.23;;;8.50;;
9485;SDS011;4781;48.776;9.200;2022-12-11T11:52:33;18.12;;;8.63;;
9485;SDS011;4781;48.776;9.200;2022-12-11T11:55:08;18.00;;;7.95;;
9485;SDS011;4781;48.776;9.200;2022-12-11T12:00:24;17.50;;;8.10;;
9485;SDS011;4781;48.776;9.200;2022-12-11T12:02:53;13.68;;;7.70;;
9485;SDS011;4781;48.776;9.200;2022-12-11T12:05:40;17.23;;;7.97;;
9485;SDS011;4781;48.776;9.200;2022-12-11T12:08:23;16.60;;;7.95;;
9485;SDS011;4781;48.776;9.200;2022-12-11T12:17:09;19.40;;;8.20;;
9485;SDS011;4781;48.776;9.200;2022-12-11T12:20:00;15.25;;;7.78;;
9485;SDS011;4781;48.776;9.200;2022-12-11T12:22:50;18.12;;;8.58;;
9485;SDS011;4781;48.776;9.200;2022-12-11T12:31:42;14.93;;;7.83;;
9485;SDS011;4781;48.776;9.200;2022-12-11T12:40:25;17.23;;;9.00;;
9485;SDS011;4781;48.776;9.200;2022-12-11T12:49:06;18.48;;;7.53;;
9485;SDS011;4781;48.776;9.200;2022-12-11T12:51:39;19.67;;;9.20;;
9485;SDS011;4781;48.776;9.200;2022-12-11T12:54:11;19.40;;;8.95;;
9485;SDS011;4781;48.776;9.200;2022-12-11T12:56:42;18.10;;;9.13;;
9485;SDS011;4781;48.776;9.200;2022-12-11T12:59:22;23.10;;;10.05;;
9485;SDS011;4781;48.776;9.200;2022-12-11T13:01:53;24.18;;;10.43;;
9485;SDS011;4781;48.776;9.200;2022-12-11T13:04:35;17.42;;;9.18;;
9485;SDS011;4781;48.776;9.200;2022-12-11T13:07:15;22.00;;;8.85;;
9485;SDS011;4781;48.776;9.200;2022-12-11T13:09:42;21.05;;;9.65;;
9485;SDS011;4781;48.776;9.200;2022-12-11T13:12:44;22.55;;;8.20;;
9485;SDS011;4781;48.776;9.200;2022-12-11T13:21:00;16.70;;;7.92;;
9485;SDS011;4781;48.776;9.200;2022-12-11T13:24:14;18.27;;;8.48;;
9485;SDS011;4781;48.776;9.200;2022-12-11T13:26:48;21.85;;;8.55;;
9485;SDS011;4781;48.776;9.200;2022-12-11T13:29:28;15.78;;;8.68;;
9485;SDS011;4781;48.776;9.200;2022-12-11T13:34:56;16.77;;;7.28;;
9485;SDS011;4781;48.776;9.200;2022-12-11T13:37:43;21.52;;;9.40;;
9485;SDS011;4781;48.776;9.200;2022-12-11T13:40:19;15.75;;;8.00;;
9485;SDS011;4781;48.776;9.200;2022-12-11T13:42:57;15.85;;;8.55;;
9485;SDS011;4781;48.776;9.200;2022-12-11T13:45:37;14.63;;;7.47;;
9485;SDS011;4781;48.776;9.200;2022-12-11T13:48:23;17.00;;;8.43;;
9485;SDS011;4781;48.776;9.200;2022-12-11T13:51:14;20.55;;;10.30;;
9485;SDS011;4781;48.776;9.200;2022-12-11T13:53:47;22.35;;;10.20;;
9485;SDS011;4781;48.776;9.200;2022-12-11T13:56:18;18.50;;;9.58;;
9485;SDS011;4781;48.776;9.200;2022-12-11T13:58:48;22.48;;;10.35;;
9485;SDS011;4781;48.776;9.200;2022-12-11T14:01:20;21.48;;;10.38;;
9485;SDS011;4781;48.776;9.200;2022-12-11T14:03:56;24.10;;;9.58;;
9485;SDS011;4781;48.776;9.200;2022-12-11T14:06:38;20.25;;;8.50;;
9485;SDS011;4781;48.776;9.200;2022-12-11T14:09:07;21.27;;;9.10;;
9485;SDS011;4781;48.776;9.200;2022-12-11T14:11:39;22.37;;;9.33;;
9485;SDS011;4781;48.776;9.200;2022-12-11T14:14:17;20.60;;;9.33;;
9485;SDS011;4781;48.776;9.200;2022-12-11T14:16:47;20.92;;;9.20;;
9485;SDS011;4781;48.776;9.200;2022-12-11T14:19:18;23.60;;;10.70;;
9485;SDS011;4781;48.776;9.200;2022-12-11T14:21:59;22.73;;;11.05;;
9485;SDS011;4781;48.776;9.200;2022-12-11T14:24:30;18.87;;;9.25;;
9485;SDS011;4781;48.776;9.200;2022-12-11T14:26:59;21.25;;;8.55;;
9485;SDS011;4781;48.776;9.200;2022-12-11T14:29:30;22.20;;;10.32;;
9485;SDS011;4781;48.776;9.200;2022-12-11T14:32:03;20.50;;;10.10;;
9485;SDS011;4781;48.776;9.200;2022-12-11T14:34:38;23.62;;;10.25;;
9485;SDS011;4781;48.776;9.200;2022-12-11T14:37:09;20.55;;;9.08;;
9485;SDS011;4781;48.776;9.200;2022-12-11T14:39:43;23.00;;;10.72;;
9485;SDS011;4781;48.776;9.200;2022-12-11T14:42:40;20.85;;;9.38;;
9485;SDS011;4781;48.776;9.200;2022-12-11T14:45:35;19.57;;;8.63;;
9485;SDS011;4781;48.776;9.200;2022-12-11T14:47:59;21.17;;;9.95;;
9485;SDS011;4781;48.776;9.200;2022-12-11T14:53:13;22.52;;;9.25;;
9485;SDS011;4781;48.776;9.200;2022-12-11T14:55:54;19.20;;;9.93;;
9485;SDS011;4781;48.776;9.200;2022-12-11T14:58:27;23.00;;;10.58;;
9485;SDS011;4781;48.776;9.200;2022-12-11T15:01:00;23.38;;;10.48;;
9485;SDS011;4781;48.776;9.200;2022-12-11T15:03:33;24.98;;;10.53;;
9485;SDS011;4781;48.776;9.200;2022-12-11T15:06:26;22.07;;;10.55;;
9485;SDS011;4781;48.776;9.200;2022-12-11T15:08:52;21.23;;;10.18;;
9485;SDS011;4781;48.776;9.200;2022-12-11T15:11:20;23.02;;;10.28;;
9485;SDS011;4781;48.776;9.200;2022-12-11T15:13:55;22.00;;;10.58;;
9485;SDS011;4781;48.776;9.200;2022-12-11T15:16:26;24.77;;;11.03;;
9485;SDS011;4781;48.776;9.200;2022-12-11T15:18:59;21.37;;;10.25;;
9485;SDS011;4781;48.776;9.200;2022-12-11T15:21:29;20.45;;;9.45;;
9485;SDS011;4781;48.776;9.200;2022-12-11T15:24:01;23.32;;;9.60;;
9485;SDS011;4781;48.776;9.200;2022-12-11T15:26:35;19.20;;;9.63;;
9485;SDS011;4781;48.776;9.200;2022-12-11T15:29:30;20.85;;;9.10;;
9485;SDS011;4781;48.776;9.200;2022-12-11T15:34:41;23.62;;;9.93;;
9485;SDS011;4781;48.776;9.200;2022-12-11T15:37:26;22.48;;;9.83;;
9485;SDS011;4781;48.776;9.200;2022-12-11T15:40:01;21.87;;;10.03;;
9485;SDS011;4781;48.776;9.200;2022-12-11T15:42:37;20.75;;;9.25;;
9485;SDS011;4781;48.776;9.200;2022-12-11T15:45:10;22.50;;;9.73;;
9485;SDS011;4781;48.776;9.200;2022-12-11T15:47:43;21.35;;;9.20;;
9485;SDS011;4781;48.776;9.200;2022-12-11T15:55:16;20.65;;;8.80;;
9485;SDS011;4781;48.776;9.200;2022-12-11T15:57:56;22.35;;;10.32;;
9485;SDS011;4781;48.776;9.200;2022-12-11T16:00:30;21.48;;;9.85;;
9485;SDS011;4781;48.776;9.200;2022-12-11T16:02:59;23.30;;;10.10;;
9485;SDS011;4781;48.776;9.200;2022-12-11T16:05:27;21.00;;;9.70;;
9485;SDS011;4781;48.776;9.200;2022-12-11T16:07:56;19.90;;;9.60;;
9485;SDS011;4781;48.776;9.200;2022-12-11T16:10:24;21.57;;;10.20;;
9485;SDS011;4781;48.776;9.200;2022-12-11T16:12:53;26.97;;;10.95;;
9485;SDS011;4781;48.776;9.200;2022-12-11T16:15:23;23.38;;;9.85;;
9485;SDS011;4781;48.776;9.200;2022-12-11T16:20:39;28.17;;;11.05;;
9485;SDS011;4781;48.776;9.200;2022-12-11T16:23:10;24.77;;;11.93;;
9485;SDS011;4781;48.776;9.200;2022-12-11T16:25:41;23.27;;;11.88;;
9485;SDS011;4781;48.776;9.200;2022-12-11T16:28:11;24.92;;;11.50;;
9485;SDS011;4781;48.776;9.200;2022-12-11T16:30:43;28.90;;;11.97;;
9485;SDS011;4781;48.776;9.200;2022-12-11T16:33:11;25.48;;;11.33;;
9485;SDS011;4781;48.776;9.200;2022-12-11T16:35:40;28.85;;;11.48;;
9485;SDS011;4781;48.776;9.200;2022-12-11T16:38:09;28.05;;;12.37;;
9485;SDS011;4781;48.776;9.200;2022-12-11T16:40:38;33.38;;;12.70;;
9485;SDS011;4781;48.776;9.200;2022-12-11T16:43:06;27.17;;;12.10;;
9485;SDS011;4781;48.776;9.200;2022-12-11T16:45:35;30.10;;;13.43;;
9485;SDS011;4781;48.776;9.200;2022-12-11T16:48:04;24.60;;;11.40;;
9485;SDS011;4781;48.776;9.200;2022-12-11T16:50:32;28.60;;;12.10;;
9485;SDS011;4781;48.776;9.200;2022-12-11T16:53:01;31.68;;;12.73;;
9485;SDS011;4781;48.776;9.200;2022-12-11T16:55:29;34.08;;;15.45;;